createdAt,value
2018-09-14T00:01:40.461Z,5.60
2018-09-14T00:04:11.149Z,6.20
2018-09-14T00:06:41.384Z,7.13
2018-09-14T00:09:13.371Z,7.50
2018-09-14T00:11:44.407Z,7.93
2018-09-14T00:14:14.874Z,8.20
2018-09-14T00:16:45.367Z,6.80
2018-09-14T00:19:15.932Z,6.60
2018-09-14T00:21:46.254Z,6.23
2018-09-14T00:24:16.675Z,6.90
2018-09-14T00:26:47.104Z,6.50
2018-09-14T00:29:17.537Z,5.93
2018-09-14T00:31:48.142Z,6.50
2018-09-14T00:34:18.597Z,5.87
2018-09-14T00:36:49.001Z,7.23
2018-09-14T00:39:19.327Z,6.23
2018-09-14T00:41:49.708Z,5.40
2018-09-14T00:44:20.144Z,4.93
2018-09-14T00:46:50.586Z,3.80
2018-09-14T00:49:20.908Z,3.90
2018-09-14T00:51:51.283Z,3.90
2018-09-14T00:54:21.865Z,3.60
2018-09-14T00:56:52.164Z,4.13
2018-09-14T00:59:22.549Z,3.70
2018-09-14T01:01:52.919Z,4.30
2018-09-14T01:04:23.659Z,3.40
2018-09-14T01:06:54.376Z,4.27
2018-09-14T01:09:25.643Z,3.10
2018-09-14T01:11:57.512Z,3.50
2018-09-14T01:14:29.012Z,3.50
2018-09-14T01:16:59.605Z,3.50
2018-09-14T01:19:30.002Z,4.17
2018-09-14T01:22:00.412Z,3.50
2018-09-14T01:24:30.903Z,4.27
2018-09-14T01:27:01.335Z,4.60
2018-09-14T01:29:31.764Z,4.70
2018-09-14T01:32:02.324Z,4.80
2018-09-14T01:34:32.816Z,5.40
2018-09-14T01:37:03.195Z,6.47
2018-09-14T01:39:33.546Z,6.80
2018-09-14T01:42:04.093Z,7.00
2018-09-14T01:44:34.430Z,8.10
2018-09-14T01:47:04.798Z,7.97
2018-09-14T01:49:35.059Z,7.33
2018-09-14T01:52:05.568Z,8.20
2018-09-14T01:54:36.028Z,8.33
2018-09-14T01:57:06.649Z,8.60
2018-09-14T01:59:37.124Z,7.37
2018-09-14T02:02:07.630Z,9.70
2018-09-14T02:04:38.087Z,9.63
2018-09-14T02:07:08.539Z,7.97
2018-09-14T02:09:38.960Z,7.50
2018-09-14T02:12:09.624Z,7.80
2018-09-14T02:14:40.012Z,8.30
2018-09-14T02:17:10.421Z,7.53
2018-09-14T02:19:40.761Z,7.87
2018-09-14T02:22:11.222Z,7.87
2018-09-14T02:24:41.620Z,7.33
2018-09-14T02:27:12.210Z,7.97
2018-09-14T02:29:42.711Z,6.23
2018-09-14T02:32:12.955Z,7.30
2018-09-14T02:34:43.343Z,7.20
2018-09-14T02:37:13.932Z,6.77
2018-09-14T02:39:44.531Z,6.60
2018-09-14T02:42:14.813Z,6.60
2018-09-14T02:44:45.060Z,6.60
2018-09-14T02:47:15.679Z,6.00
2018-09-14T02:49:46.043Z,5.50
2018-09-14T02:52:16.756Z,5.90
2018-09-14T02:54:47.296Z,6.53
2018-09-14T02:57:17.787Z,5.43
2018-09-14T02:59:48.392Z,5.50
2018-09-14T03:02:18.525Z,5.50
2018-09-14T03:04:48.924Z,5.60
2018-09-14T03:07:19.404Z,4.87
2018-09-14T03:09:49.696Z,5.60
2018-09-14T03:12:19.903Z,5.63
2018-09-14T03:14:50.274Z,5.93
2018-09-14T03:17:20.557Z,5.07
2018-09-14T03:19:50.963Z,3.83
2018-09-14T03:22:21.444Z,3.40
2018-09-14T03:24:51.772Z,4.03
2018-09-14T03:27:22.022Z,3.90
2018-09-14T03:29:52.321Z,3.00
2018-09-14T03:32:22.882Z,3.50
2018-09-14T03:34:53.424Z,3.20
2018-09-14T03:37:23.622Z,3.57
2018-09-14T03:39:54.423Z,3.43
2018-09-14T03:42:25.008Z,3.60
2018-09-14T03:44:55.351Z,3.80
2018-09-14T03:47:25.807Z,3.87
2018-09-14T03:49:56.408Z,3.63
2018-09-14T03:52:26.734Z,4.10
2018-09-14T03:54:56.941Z,3.60
2018-09-14T03:57:27.314Z,4.97
2018-09-14T03:59:57.825Z,4.77
2018-09-14T04:02:28.228Z,7.07
2018-09-14T04:04:58.565Z,6.63
2018-09-14T04:07:29.065Z,6.77
2018-09-14T04:09:59.449Z,9.40
2018-09-14T04:12:29.954Z,7.70
2018-09-14T04:15:00.419Z,7.67
2018-09-14T04:17:30.704Z,9.63
2018-09-14T04:20:01.521Z,9.37
2018-09-14T04:22:31.956Z,10.57
2018-09-14T04:25:02.341Z,10.97
2018-09-14T04:27:32.748Z,10.47
2018-09-14T04:30:03.088Z,10.87
2018-09-14T04:32:33.364Z,9.03
2018-09-14T04:35:03.843Z,9.03
2018-09-14T04:37:34.216Z,7.60
2018-09-14T04:40:04.900Z,7.27
2018-09-14T04:42:35.379Z,7.40
2018-09-14T04:45:06.452Z,7.10
2018-09-14T04:47:36.842Z,7.50
2018-09-14T04:50:08.076Z,8.00
2018-09-14T04:52:39.378Z,9.20
2018-09-14T04:55:09.708Z,8.17
2018-09-14T04:57:40.196Z,8.20
2018-09-14T05:00:10.685Z,8.23
2018-09-14T05:02:41.166Z,6.17
2018-09-14T05:05:11.659Z,5.30
2018-09-14T05:07:42.144Z,5.03
2018-09-14T05:10:12.704Z,5.20
2018-09-14T05:12:43.196Z,5.37
2018-09-14T05:15:13.812Z,5.60
2018-09-14T05:17:44.008Z,5.50
2018-09-14T05:20:14.462Z,6.10
2018-09-14T05:22:45.021Z,6.43
2018-09-14T05:25:15.513Z,5.50
2018-09-14T05:27:45.820Z,6.70
2018-09-14T05:30:16.335Z,6.40
2018-09-14T05:32:47.932Z,6.47
2018-09-14T05:35:18.303Z,7.90
2018-09-14T05:37:48.655Z,6.13
2018-09-14T05:40:19.145Z,7.17
2018-09-14T05:42:49.535Z,9.90
2018-09-14T05:45:20.018Z,8.17
2018-09-14T05:47:50.428Z,8.57
2018-09-14T05:50:20.935Z,7.45
2018-09-14T05:52:51.524Z,6.50
2018-09-14T05:55:22.117Z,6.70
2018-09-14T05:57:52.585Z,6.83
2018-09-14T06:00:22.972Z,6.67
2018-09-14T06:02:53.472Z,8.30
2018-09-14T06:05:42.817Z,9.93
2018-09-14T06:08:13.257Z,8.37
2018-09-14T06:10:43.817Z,9.40
2018-09-14T06:13:14.316Z,9.97
2018-09-14T06:15:44.893Z,7.83
2018-09-14T06:18:15.456Z,7.20
2018-09-14T06:20:46.001Z,9.33
2018-09-14T06:23:16.685Z,7.40
2018-09-14T06:25:47.072Z,9.77
2018-09-14T06:28:17.544Z,9.63
2018-09-14T06:30:48.153Z,7.63
2018-09-14T06:33:18.555Z,9.30
2018-09-14T06:35:49.563Z,7.43
2018-09-14T06:38:20.177Z,7.20
2018-09-14T06:40:51.213Z,8.50
2018-09-14T06:43:21.716Z,8.33
2018-09-14T06:45:52.129Z,6.97
2018-09-14T06:48:22.455Z,7.53
2018-09-14T06:50:52.913Z,9.60
2018-09-14T06:53:23.599Z,7.10
2018-09-14T06:55:54.006Z,7.90
2018-09-14T06:58:25.503Z,8.40
2018-09-14T07:00:55.943Z,8.90
2018-09-14T07:03:26.331Z,11.67
2018-09-14T07:05:56.945Z,11.70
2018-09-14T07:08:27.459Z,10.73
2018-09-14T07:10:57.904Z,11.50
2018-09-14T07:13:28.293Z,11.63
2018-09-14T07:15:58.716Z,11.37
2018-09-14T07:18:29.080Z,13.30
2018-09-14T07:20:59.466Z,13.30
2018-09-14T07:23:30.426Z,13.17
2018-09-14T07:26:00.985Z,14.40
2018-09-14T07:28:31.568Z,14.53
2018-09-14T07:31:01.928Z,16.20
2018-09-14T07:33:32.184Z,15.13
2018-09-14T07:36:02.771Z,16.70
2018-09-14T07:38:33.247Z,15.70
2018-09-14T07:41:03.586Z,15.77
2018-09-14T07:43:33.991Z,16.43
2018-09-14T07:46:04.417Z,15.83
2018-09-14T07:48:34.727Z,16.53
2018-09-14T07:51:05.288Z,16.20
2018-09-14T07:53:35.877Z,17.60
2018-09-14T07:56:06.379Z,18.63
2018-09-14T07:58:36.882Z,18.10
2018-09-14T08:01:07.201Z,18.10
2018-09-14T08:03:37.615Z,16.60
2018-09-14T08:06:08.199Z,18.33
2018-09-14T08:08:38.791Z,18.63
2018-09-14T08:11:09.135Z,17.70
2018-09-14T08:13:39.634Z,18.10
2018-09-14T08:16:09.964Z,20.13
2018-09-14T08:18:40.364Z,17.60
2018-09-14T08:21:10.910Z,19.23
2018-09-14T08:23:41.549Z,18.20
2018-09-14T08:26:11.923Z,20.13
2018-09-14T08:28:42.292Z,19.07
2018-09-14T08:31:12.651Z,18.77
2018-09-14T08:33:43.109Z,17.90
2018-09-14T08:36:13.547Z,16.87
2018-09-14T08:38:44.083Z,16.77
2018-09-14T08:41:14.902Z,16.60
2018-09-14T08:43:45.248Z,16.63
2018-09-14T08:46:15.584Z,16.40
2018-09-14T08:48:46.003Z,15.20
2018-09-14T08:51:21.423Z,14.30
2018-09-14T08:53:51.847Z,14.50
2018-09-14T08:56:22.235Z,14.67
2018-09-14T08:59:00.892Z,15.43
2018-09-14T09:01:31.445Z,14.97
2018-09-14T09:04:05.616Z,14.80
2018-09-14T09:06:35.957Z,13.33
2018-09-14T09:09:09.488Z,13.10
2018-09-14T09:11:40.044Z,11.90
2018-09-14T09:14:10.255Z,12.20
2018-09-14T09:16:40.877Z,12.43
2018-09-14T09:19:11.216Z,13.13
2018-09-14T09:21:41.597Z,12.60
2018-09-14T09:24:12.181Z,13.80
2018-09-14T09:26:42.668Z,13.50
2018-09-14T09:29:13.052Z,12.17
2018-09-14T09:31:43.496Z,10.70
2018-09-14T09:37:49.214Z,11.60
2018-09-14T09:40:19.772Z,13.00
2018-09-14T09:42:50.238Z,12.57
2018-09-14T09:45:20.600Z,12.00
2018-09-14T09:47:51.064Z,12.63
2018-09-14T09:50:21.468Z,12.70
2018-09-14T09:52:51.904Z,11.10
2018-09-14T09:55:22.128Z,11.50
2018-09-14T09:58:17.023Z,10.80
2018-09-14T10:00:52.541Z,8.53
2018-09-14T10:03:27.973Z,8.03
2018-09-14T10:06:03.447Z,8.67
2018-09-14T10:08:33.893Z,8.17
2018-09-14T10:11:04.947Z,6.90
2018-09-14T10:13:35.342Z,7.60
2018-09-14T10:16:06.061Z,8.47
2018-09-14T10:18:36.400Z,7.43
2018-09-14T10:21:07.269Z,6.37
2018-09-14T10:23:37.753Z,6.57
2018-09-14T10:26:08.381Z,8.43
2018-09-14T10:28:39.024Z,10.40
2018-09-14T10:31:09.675Z,8.40
2018-09-14T10:33:39.992Z,7.83
2018-09-14T10:36:10.880Z,7.43
2018-09-14T10:38:41.419Z,8.30
2018-09-14T10:41:13.377Z,9.60
2018-09-14T10:43:43.596Z,7.80
2018-09-14T10:46:14.040Z,7.80
2018-09-14T10:48:44.373Z,9.00
2018-09-14T10:51:14.937Z,8.60
2018-09-14T10:53:45.523Z,9.17
2018-09-14T10:56:15.886Z,7.43
2018-09-14T10:58:46.428Z,7.90
2018-09-14T11:01:17.325Z,6.00
2018-09-14T11:03:47.705Z,5.67
2018-09-14T11:06:18.132Z,6.47
2018-09-14T11:08:49.201Z,6.10
2018-09-14T11:11:19.700Z,6.20
2018-09-14T11:13:50.022Z,6.20
2018-09-14T11:16:20.576Z,6.10
2018-09-14T11:18:51.218Z,5.53
2018-09-14T11:21:21.484Z,6.20
2018-09-14T11:23:51.948Z,5.07
2018-09-14T11:26:22.249Z,5.13
2018-09-14T11:28:52.639Z,5.73
2018-09-14T11:31:28.939Z,6.20
2018-09-14T11:33:59.717Z,6.60
2018-09-14T11:36:30.288Z,6.43
2018-09-14T11:39:00.773Z,6.60
2018-09-14T11:41:31.280Z,5.90
2018-09-14T11:44:01.544Z,5.97
2018-09-14T11:46:31.993Z,6.00
2018-09-14T11:49:02.334Z,4.90
2018-09-14T11:51:32.991Z,5.10
2018-09-14T11:54:03.700Z,6.03
2018-09-14T11:56:34.977Z,5.53
2018-09-14T11:59:05.453Z,4.40
2018-09-14T12:01:36.161Z,5.07
2018-09-14T12:04:06.741Z,5.80
2018-09-14T12:06:37.400Z,4.90
2018-09-14T12:09:11.402Z,5.23
2018-09-14T12:11:42.385Z,4.43
2018-09-14T12:14:12.898Z,4.90
2018-09-14T12:16:43.387Z,4.90
2018-09-14T12:19:13.896Z,4.67
2018-09-14T12:21:44.233Z,4.77
2018-09-14T12:24:14.668Z,4.57
2018-09-14T12:26:45.089Z,5.57
2018-09-14T12:29:15.379Z,4.77
2018-09-14T12:31:45.877Z,5.50
2018-09-14T12:34:16.356Z,3.67
2018-09-14T12:36:47.661Z,3.60
2018-09-14T12:39:18.149Z,4.10
2018-09-14T12:41:48.711Z,4.10
2018-09-14T12:44:19.004Z,3.70
2018-09-14T12:46:49.350Z,4.20
2018-09-14T12:49:19.761Z,3.80
2018-09-14T12:51:50.223Z,3.20
2018-09-14T12:54:20.531Z,3.73
2018-09-14T12:56:50.980Z,3.40
2018-09-14T12:59:21.256Z,3.40
2018-09-14T13:01:51.916Z,3.13
2018-09-14T13:04:22.876Z,3.20
2018-09-14T13:06:53.322Z,3.10
2018-09-14T13:09:23.746Z,3.13
2018-09-14T13:11:53.970Z,4.07
2018-09-14T13:14:24.766Z,3.03
2018-09-14T13:16:54.007Z,3.20
2018-09-14T13:19:24.310Z,3.00
2018-09-14T13:21:54.880Z,3.87
2018-09-14T13:24:25.576Z,3.80
2018-09-14T13:26:56.008Z,3.83
2018-09-14T13:29:26.405Z,3.43
2018-09-14T13:31:56.832Z,3.50
2018-09-14T13:34:28.454Z,4.17
2018-09-14T13:36:58.956Z,4.30
2018-09-14T13:39:29.312Z,4.60
2018-09-14T13:41:59.636Z,3.83
2018-09-14T13:44:30.071Z,4.00
2018-09-14T13:47:01.340Z,3.50
2018-09-14T13:49:31.822Z,3.67
2018-09-14T13:52:02.139Z,3.10
2018-09-14T13:54:32.479Z,2.63
2018-09-14T13:57:03.462Z,2.60
2018-09-14T13:59:33.952Z,3.30
2018-09-14T14:02:04.376Z,3.57
2018-09-14T14:04:35.162Z,3.70
2018-09-14T14:07:05.611Z,3.63
2018-09-14T14:09:36.222Z,4.03
2018-09-14T14:12:06.520Z,3.57
2018-09-14T14:14:36.861Z,3.03
2018-09-14T14:17:07.558Z,3.60
2018-09-14T14:19:38.038Z,2.97
2018-09-14T14:22:08.646Z,2.30
2018-09-14T14:24:39.096Z,2.50
2018-09-14T14:27:09.558Z,2.50
2018-09-14T14:29:39.924Z,2.83
2018-09-14T14:32:10.391Z,2.20
2018-09-14T14:34:40.746Z,2.57
2018-09-14T14:37:11.049Z,2.17
2018-09-14T14:39:41.496Z,2.43
2018-09-14T14:42:11.821Z,2.53
2018-09-14T14:44:42.291Z,2.60
2018-09-14T14:47:12.569Z,2.40
2018-09-14T14:49:42.913Z,2.50
2018-09-14T14:52:13.231Z,2.70
2018-09-14T14:54:43.688Z,3.00
2018-09-14T14:57:14.005Z,2.47
2018-09-14T15:02:44.730Z,2.67
2018-09-14T15:05:15.108Z,2.90
2018-09-14T15:07:45.463Z,2.77
2018-09-14T15:10:16.116Z,2.40
2018-09-14T15:12:46.476Z,2.80
2018-09-14T15:15:16.721Z,2.73
2018-09-14T15:17:47.035Z,2.50
2018-09-14T15:20:17.556Z,2.70
2018-09-14T15:22:47.872Z,2.93
2018-09-14T15:25:18.337Z,2.50
2018-09-14T15:27:48.840Z,2.57
2018-09-14T15:30:19.273Z,3.00
2018-09-14T15:32:49.769Z,2.27
2018-09-14T15:35:20.312Z,2.10
2018-09-14T15:37:51.143Z,2.63
2018-09-14T15:40:22.117Z,2.70
2018-09-14T15:42:52.668Z,2.30
2018-09-14T15:45:23.049Z,2.10
2018-09-14T15:47:59.743Z,2.00
2018-09-14T15:50:30.218Z,2.37
2018-09-14T15:53:00.643Z,1.93
2018-09-14T15:55:30.939Z,2.27
2018-09-14T15:58:01.353Z,2.40
2018-09-14T16:00:31.929Z,2.20
2018-09-14T16:03:02.332Z,2.30
2018-09-14T16:05:32.808Z,1.83
2018-09-14T16:08:03.317Z,2.40
2018-09-14T16:10:33.764Z,2.17
2018-09-14T16:13:04.258Z,2.37
2018-09-14T16:15:34.711Z,2.00
2018-09-14T16:18:05.154Z,2.93
2018-09-14T16:20:35.613Z,2.43
2018-09-14T16:23:05.983Z,2.10
2018-09-14T16:25:36.408Z,2.30
2018-09-14T16:28:06.950Z,2.10
2018-09-14T16:30:37.200Z,2.60
2018-09-14T16:33:07.760Z,2.13
2018-09-14T16:35:38.121Z,2.27
2018-09-14T16:38:08.665Z,2.50
2018-09-14T16:40:39.291Z,2.00
2018-09-14T16:43:09.850Z,2.27
2018-09-14T16:45:40.122Z,2.00
2018-09-14T16:48:10.592Z,1.83
2018-09-14T16:50:40.957Z,2.40
2018-09-14T16:53:11.240Z,2.57
2018-09-14T16:55:41.449Z,1.70
2018-09-14T16:58:11.876Z,2.17
2018-09-14T17:00:42.272Z,2.13
2018-09-14T17:03:12.647Z,2.33
2018-09-14T17:05:43.144Z,2.10
2018-09-14T17:08:13.538Z,2.00
2018-09-14T17:10:43.866Z,2.10
2018-09-14T17:13:14.274Z,2.30
2018-09-14T17:15:44.950Z,2.07
2018-09-14T17:18:15.377Z,3.03
2018-09-14T17:20:46.037Z,2.00
2018-09-14T17:23:16.548Z,2.23
2018-09-14T17:25:47.075Z,2.33
2018-09-14T17:28:17.309Z,2.20
2018-09-14T17:30:47.704Z,2.60
2018-09-14T17:33:18.201Z,2.20
2018-09-14T17:35:48.800Z,2.37
2018-09-14T17:38:19.427Z,2.23
2018-09-14T17:40:50.467Z,2.90
2018-09-14T17:43:21.074Z,1.97
2018-09-14T17:45:52.043Z,2.00
2018-09-14T17:48:22.585Z,2.17
2018-09-14T17:50:53.331Z,2.40
2018-09-14T17:53:23.739Z,2.50
2018-09-14T17:55:54.139Z,2.03
2018-09-14T17:58:24.579Z,2.43
2018-09-14T18:00:55.044Z,2.03
2018-09-14T18:03:25.411Z,2.83
2018-09-14T18:05:55.841Z,2.27
2018-09-14T18:11:05.066Z,2.77
2018-09-14T18:13:35.616Z,1.93
2018-09-14T18:16:05.950Z,2.53
2018-09-14T18:18:36.375Z,2.43
2018-09-14T18:24:07.775Z,1.90
2018-09-14T18:26:38.243Z,1.90
2018-09-14T18:29:08.450Z,2.20
2018-09-14T18:31:38.927Z,2.63
2018-09-14T18:34:09.427Z,2.70
2018-09-14T18:36:39.779Z,2.87
2018-09-14T18:39:12.651Z,3.07
2018-09-14T18:41:43.800Z,3.30
2018-09-14T18:44:14.088Z,3.10
2018-09-14T18:46:44.663Z,3.20
2018-09-14T18:49:15.048Z,2.90
2018-09-14T18:51:45.600Z,2.70
2018-09-14T18:54:16.193Z,2.77
2018-09-14T18:56:46.573Z,3.27
2018-09-14T18:59:16.932Z,3.30
2018-09-14T19:01:47.720Z,2.80
2018-09-14T19:04:18.132Z,3.10
2018-09-14T19:07:11.313Z,3.23
2018-09-14T19:09:41.685Z,2.87
2018-09-14T19:12:11.950Z,3.37
2018-09-14T19:14:42.460Z,2.93
2018-09-14T19:17:12.970Z,2.90
2018-09-14T19:19:43.617Z,3.27
2018-09-14T19:22:14.109Z,3.37
2018-09-14T19:24:44.521Z,3.40
2018-09-14T19:27:14.971Z,3.23
2018-09-14T19:29:45.423Z,2.87
2018-09-14T19:32:15.914Z,3.13
2018-09-14T19:34:46.352Z,3.40
2018-09-14T19:37:16.691Z,3.90
2018-09-14T19:39:47.154Z,4.80
2018-09-14T19:42:17.624Z,4.43
2018-09-14T19:44:48.013Z,4.50
2018-09-14T19:47:18.576Z,4.30
2018-09-14T19:50:11.656Z,4.07
2018-09-14T19:52:42.116Z,4.60
2018-09-14T19:55:12.592Z,4.60
2018-09-14T19:57:43.188Z,4.97
2018-09-14T20:00:13.596Z,4.63
2018-09-14T20:02:43.977Z,4.57
2018-09-14T20:05:14.981Z,4.80
2018-09-14T20:07:45.700Z,4.77
2018-09-14T20:10:17.065Z,5.53
2018-09-14T20:12:47.528Z,5.70
2018-09-14T20:15:18.028Z,5.00
2018-09-14T20:17:48.528Z,4.93
2018-09-14T20:20:18.863Z,4.87
2018-09-14T20:22:49.945Z,5.80
2018-09-14T20:25:20.235Z,5.90
2018-09-14T20:27:50.611Z,6.13
2018-09-14T20:33:21.480Z,6.23
2018-09-14T20:35:55.233Z,6.10
2018-09-14T20:38:25.659Z,6.33
2018-09-14T20:40:56.181Z,6.90
2018-09-14T20:43:26.735Z,7.00
2018-09-14T20:45:57.587Z,7.10
2018-09-14T20:48:28.140Z,6.33
2018-09-14T20:50:58.732Z,6.73
2018-09-14T20:53:29.142Z,6.43
2018-09-14T20:55:59.562Z,6.83
2018-09-14T20:58:30.213Z,8.00
2018-09-14T21:01:00.708Z,6.80
2018-09-14T21:03:31.117Z,6.53
2018-09-14T21:06:01.564Z,8.50
2018-09-14T21:08:32.023Z,7.70
2018-09-14T21:11:02.383Z,7.07
2018-09-14T21:13:32.848Z,7.13
2018-09-14T21:16:03.155Z,7.47
2018-09-14T21:18:33.607Z,6.77
2018-09-14T21:21:04.079Z,7.30
2018-09-14T21:23:35.154Z,7.90
2018-09-14T21:26:05.927Z,7.07
2018-09-14T21:28:36.427Z,7.43
2018-09-14T21:31:06.886Z,8.00
2018-09-14T21:33:37.782Z,7.80
2018-09-14T21:36:08.176Z,8.03
2018-09-14T21:38:38.771Z,7.93
2018-09-14T21:41:09.118Z,7.90
2018-09-14T21:43:39.494Z,8.73
2018-09-14T21:46:09.856Z,8.67
2018-09-14T21:48:40.316Z,9.10
2018-09-14T21:51:10.349Z,9.10
2018-09-14T21:53:40.458Z,7.33
2018-09-14T21:56:10.981Z,7.80
2018-09-14T21:58:41.416Z,8.37
2018-09-14T22:01:15.685Z,7.60
2018-09-14T22:03:46.249Z,8.20
2018-09-14T22:06:17.121Z,7.90
2018-09-14T22:08:47.516Z,7.90
2018-09-14T22:11:18.084Z,7.83
2018-09-14T22:13:48.841Z,8.27
2018-09-14T22:16:19.311Z,8.27
2018-09-14T22:18:49.726Z,8.30
2018-09-14T22:21:20.225Z,9.23
2018-09-14T22:23:50.790Z,9.03
2018-09-14T22:26:21.277Z,10.70
2018-09-14T22:28:51.887Z,10.07
2018-09-14T22:31:22.236Z,9.67
2018-09-14T22:33:52.610Z,10.47
2018-09-14T22:36:23.067Z,9.70
2018-09-14T22:38:53.744Z,9.80
2018-09-14T22:41:24.043Z,11.50
2018-09-14T22:43:54.400Z,11.07
2018-09-14T22:46:24.896Z,11.50
2018-09-14T22:48:55.364Z,12.23
2018-09-14T22:51:25.990Z,12.37
2018-09-14T22:53:56.501Z,13.47
2018-09-14T22:56:26.828Z,11.90
2018-09-14T22:58:57.260Z,13.67
2018-09-14T23:01:27.812Z,13.10
2018-09-14T23:03:58.315Z,13.20
2018-09-14T23:06:28.786Z,12.40
2018-09-14T23:12:00.466Z,13.67
2018-09-14T23:14:30.915Z,13.00
2018-09-14T23:17:01.420Z,13.20
2018-09-14T23:19:32.020Z,13.10
2018-09-14T23:22:02.617Z,14.27
2018-09-14T23:24:33.191Z,13.60
2018-09-14T23:27:03.722Z,14.03
2018-09-14T23:29:34.040Z,14.37
2018-09-14T23:32:04.863Z,14.70
2018-09-14T23:34:35.313Z,14.43
2018-09-14T23:37:05.855Z,15.80
2018-09-14T23:39:36.279Z,15.70
2018-09-14T23:42:06.635Z,15.70
2018-09-14T23:44:36.819Z,15.53
2018-09-14T23:47:07.607Z,15.27
2018-09-14T23:49:37.972Z,16.37
2018-09-14T23:52:08.465Z,16.43
2018-09-14T23:54:38.915Z,14.80
2018-09-14T23:57:09.159Z,16.23
2018-09-14T23:59:39.656Z,16.27
